Saint Louis, Missouri
Traffic Map
Current Weather Conditions
Saint Louis, Missouri
Clear
Clear
30°
Feels Like: 32°
Wind Chill: 30° Ceiling: Unl
Heat Index: 32° Visibility: 10mi
Dew Point: 20° Wind: 8mph
Humidity: 55% Direction: 230° (SW)
Pressure: 29.93in Gusts: 0mph
Raw Report DataKCPS 201953Z 23007KT 10SM CLR 30/20 A2993 RMK AO2 SLP133 T03000200
Traffic Incident Summary
Active as of:
Severity:
Category:
InformationThere was an issue retrieving the traffic information for this location. Please try a different location or try again shortly.
Advertisements
Track Severe Weather on mobile